createdAt,value
2023-02-12T00:00:56.778Z,2.37
2023-02-12T00:05:09.212Z,2.06
2023-02-12T00:09:21.622Z,2.29
2023-02-12T00:13:33.919Z,2.88
2023-02-12T00:17:46.377Z,2.24
2023-02-12T00:21:58.788Z,1.94
2023-02-12T00:26:14.274Z,1.84
2023-02-12T00:30:31.769Z,2.62
2023-02-12T00:34:45.034Z,2.16
2023-02-12T00:39:01.598Z,2.13
2023-02-12T00:43:14.083Z,1.94
2023-02-12T00:47:26.587Z,1.90
2023-02-12T00:51:38.897Z,2.16
2023-02-12T00:55:51.342Z,2.55
2023-02-12T01:00:04.754Z,2.72
2023-02-12T01:04:17.774Z,2.72
2023-02-12T01:08:30.593Z,2.38
2023-02-12T01:12:43.737Z,2.04
2023-02-12T01:16:56.054Z,2.49
2023-02-12T01:21:15.124Z,2.76
2023-02-12T01:25:27.981Z,2.57
2023-02-12T01:29:44.864Z,3.14
2023-02-12T01:33:59.423Z,2.28
2023-02-12T01:38:11.794Z,1.93
2023-02-12T01:42:24.080Z,2.33
2023-02-12T01:46:37.302Z,2.43
2023-02-12T01:50:52.292Z,1.97
2023-02-12T01:55:08.825Z,1.89
2023-02-12T01:59:22.437Z,2.27
2023-02-12T02:03:38.411Z,2.39
2023-02-12T02:07:50.981Z,2.38
2023-02-12T02:12:22.659Z,2.19
2023-02-12T02:16:36.846Z,1.99
2023-02-12T02:21:10.648Z,2.12
2023-02-12T02:25:33.678Z,1.98
2023-02-12T02:30:13.121Z,2.07
2023-02-12T02:35:01.290Z,1.80
2023-02-12T02:39:30.879Z,2.38
2023-02-12T02:43:52.038Z,1.86
2023-02-12T02:48:13.989Z,1.77
2023-02-12T02:52:43.725Z,2.28
2023-02-12T02:57:06.465Z,2.42
2023-02-12T03:01:31.717Z,2.52
2023-02-12T03:05:49.455Z,2.60
2023-02-12T03:10:12.090Z,2.68
2023-02-12T03:14:31.868Z,2.59
2023-02-12T03:19:27.666Z,2.32
2023-02-12T03:24:22.772Z,2.39
2023-02-12T03:28:38.630Z,2.08
2023-02-12T03:33:20.569Z,2.24
2023-02-12T03:37:38.968Z,1.98
2023-02-12T03:42:02.707Z,1.87
2023-02-12T03:46:33.057Z,1.70
2023-02-12T03:50:48.549Z,2.16
2023-02-12T03:55:01.056Z,2.20
2023-02-12T03:59:13.621Z,2.24
2023-02-12T04:03:26.336Z,2.39
2023-02-12T04:07:38.815Z,2.30
2023-02-12T04:12:21.861Z,2.28
2023-02-12T04:17:11.479Z,2.13
2023-02-12T04:21:46.885Z,1.93
2023-02-12T04:26:26.023Z,1.81
2023-02-12T04:30:45.716Z,2.25
2023-02-12T04:35:02.712Z,2.08
2023-02-12T04:39:23.648Z,2.24
2023-02-12T04:43:37.919Z,2.17
2023-02-12T04:47:50.313Z,2.14
2023-02-12T04:52:02.721Z,2.04
2023-02-12T04:56:15.442Z,2.04
2023-02-12T05:00:27.850Z,2.01
2023-02-12T05:04:40.283Z,1.85
2023-02-12T05:08:55.774Z,1.66
2023-02-12T05:13:08.182Z,1.73
2023-02-12T05:17:23.133Z,1.90
2023-02-12T05:21:36.482Z,2.14
2023-02-12T05:25:57.103Z,2.10
2023-02-12T05:30:10.093Z,1.96
2023-02-12T05:34:22.433Z,1.79
2023-02-12T05:38:35.408Z,1.98
2023-02-12T05:42:47.970Z,2.09
2023-02-12T05:47:00.399Z,2.23
2023-02-12T05:51:16.415Z,2.21
2023-02-12T05:55:29.147Z,2.44
2023-02-12T05:59:41.441Z,2.75
2023-02-12T06:03:53.932Z,2.71
2023-02-12T06:08:06.314Z,2.78
2023-02-12T06:12:18.771Z,2.69
2023-02-12T06:16:32.211Z,2.78
2023-02-12T06:20:44.529Z,2.94
2023-02-12T06:24:56.937Z,3.24
2023-02-12T06:29:09.433Z,3.31
2023-02-12T06:33:22.242Z,3.31
2023-02-12T06:37:37.391Z,2.80
2023-02-12T06:41:50.875Z,2.91
2023-02-12T06:46:04.499Z,2.78
2023-02-12T06:50:17.112Z,3.06
2023-02-12T06:54:29.538Z,3.13
2023-02-12T06:58:46.633Z,3.31
2023-02-12T07:02:59.071Z,3.44
2023-02-12T07:07:11.513Z,3.61
2023-02-12T07:11:28.790Z,3.60
2023-02-12T07:15:41.184Z,3.55
2023-02-12T07:19:54.445Z,3.72
2023-02-12T07:24:07.897Z,3.61
2023-02-12T07:28:21.477Z,3.87
2023-02-12T07:32:34.967Z,4.09
2023-02-12T07:36:47.359Z,4.11
2023-02-12T07:41:12.574Z,4.26
2023-02-12T07:45:25.252Z,4.22
2023-02-12T07:49:37.671Z,4.35
2023-02-12T07:53:50.455Z,4.59
2023-02-12T07:58:04.764Z,4.95
2023-02-12T08:02:17.130Z,5.12
2023-02-12T08:06:32.911Z,5.44
2023-02-12T08:10:45.332Z,5.91
2023-02-12T08:14:57.877Z,6.23
2023-02-12T08:19:19.364Z,6.32
2023-02-12T08:23:34.658Z,6.17
2023-02-12T08:27:47.545Z,5.75
2023-02-12T08:32:02.745Z,5.96
2023-02-12T08:36:18.753Z,6.02
2023-02-12T08:40:31.164Z,6.61
2023-02-12T08:44:43.534Z,6.01
2023-02-12T08:48:58.661Z,6.51
2023-02-12T08:53:11.666Z,6.46
2023-02-12T08:57:26.724Z,7.20
2023-02-12T09:01:42.089Z,6.88
2023-02-12T09:05:54.890Z,6.16
2023-02-12T09:10:08.303Z,4.35
2023-02-12T09:14:24.991Z,4.80
2023-02-12T09:18:38.751Z,5.11
2023-02-12T09:22:51.179Z,5.09
2023-02-12T09:27:03.876Z,5.23
2023-02-12T09:31:21.135Z,5.29
2023-02-12T09:35:38.038Z,5.43
2023-02-12T09:39:51.300Z,6.02
2023-02-12T09:44:11.621Z,6.34
2023-02-12T09:48:42.389Z,6.39
2023-02-12T09:52:58.232Z,6.03
2023-02-12T09:57:21.775Z,7.09
2023-02-12T10:01:35.385Z,7.30
2023-02-12T10:06:00.248Z,7.92
2023-02-12T10:10:25.934Z,8.41
2023-02-12T10:15:17.318Z,8.39
2023-02-12T10:19:38.562Z,9.17
2023-02-12T10:24:05.914Z,8.34
2023-02-12T10:28:24.425Z,9.96
2023-02-12T10:32:38.955Z,10.08
2023-02-12T10:36:54.456Z,9.98
2023-02-12T10:41:16.598Z,9.83
2023-02-12T10:45:39.178Z,10.70
2023-02-12T10:49:58.236Z,10.85
2023-02-12T10:54:41.320Z,10.49
2023-02-12T10:58:59.703Z,10.26
2023-02-12T11:03:12.028Z,10.50
2023-02-12T11:07:26.572Z,10.36
2023-02-12T11:11:39.424Z,10.43
2023-02-12T11:15:52.159Z,12.00
2023-02-12T11:20:23.103Z,11.25
2023-02-12T11:24:37.408Z,11.26
2023-02-12T11:29:01.273Z,11.49
2023-02-12T11:33:37.590Z,11.39
2023-02-12T11:37:52.829Z,11.73
2023-02-12T11:42:20.466Z,11.88
2023-02-12T11:46:33.099Z,12.94
2023-02-12T11:50:51.207Z,12.71
2023-02-12T11:55:41.734Z,12.60
2023-02-12T11:59:56.740Z,13.06
2023-02-12T12:04:15.391Z,12.57
2023-02-12T12:08:49.916Z,12.91
2023-02-12T12:13:13.509Z,12.69
2023-02-12T12:18:12.772Z,13.41
2023-02-12T12:22:50.667Z,14.12
2023-02-12T12:27:51.121Z,14.27
2023-02-12T12:32:07.539Z,15.48
2023-02-12T12:37:16.015Z,15.42
2023-02-12T12:41:34.711Z,14.74
2023-02-12T12:46:15.570Z,13.90
2023-02-12T12:50:46.509Z,13.55
2023-02-12T12:55:34.409Z,13.57
2023-02-12T13:00:25.447Z,13.37
2023-02-12T13:04:51.641Z,13.82
2023-02-12T13:09:24.225Z,14.09
2023-02-12T13:14:04.283Z,13.94
2023-02-12T13:18:41.210Z,13.42
2023-02-12T13:23:04.500Z,13.43
2023-02-12T13:27:35.710Z,13.62
2023-02-12T13:32:09.242Z,13.16
2023-02-12T13:36:21.720Z,13.14
2023-02-12T13:40:35.513Z,12.96
2023-02-12T13:44:57.211Z,13.19
2023-02-12T13:49:25.371Z,13.13
2023-02-12T13:53:47.384Z,13.14
2023-02-12T13:58:39.461Z,13.33
2023-02-12T14:02:52.976Z,13.08
2023-02-12T14:07:10.542Z,13.12
2023-02-12T14:11:25.750Z,13.14
2023-02-12T14:15:45.249Z,12.92
2023-02-12T14:20:28.536Z,13.19
2023-02-12T14:24:53.187Z,13.47
2023-02-12T14:29:21.330Z,13.18
2023-02-12T14:33:36.184Z,13.25
2023-02-12T14:37:48.599Z,13.41
2023-02-12T14:42:25.989Z,13.15
2023-02-12T14:46:38.363Z,13.09
2023-02-12T14:50:52.578Z,12.83
2023-02-12T14:55:08.425Z,12.91
2023-02-12T14:59:24.485Z,12.60
2023-02-12T15:03:46.657Z,12.43
2023-02-12T15:08:24.140Z,12.39
2023-02-12T15:12:52.254Z,12.10
2023-02-12T15:17:11.929Z,12.06
2023-02-12T15:21:31.838Z,11.87
2023-02-12T15:25:45.327Z,11.97
2023-02-12T15:29:58.611Z,11.78
2023-02-12T15:34:24.306Z,11.56
2023-02-12T15:38:50.732Z,11.60
2023-02-12T15:43:07.584Z,11.45
2023-02-12T15:47:24.953Z,11.35
2023-02-12T15:51:42.065Z,11.22
2023-02-12T15:55:56.547Z,11.08
2023-02-12T16:00:41.745Z,10.96
2023-02-12T16:04:56.363Z,10.87
2023-02-12T16:09:16.008Z,10.68
2023-02-12T16:13:34.923Z,10.54
2023-02-12T16:17:48.618Z,10.47
2023-02-12T16:22:14.576Z,10.42
2023-02-12T16:26:28.140Z,10.35
2023-02-12T16:30:43.441Z,10.10
2023-02-12T16:35:06.256Z,9.93
2023-02-12T16:39:45.633Z,9.66
2023-02-12T16:44:11.086Z,9.48
2023-02-12T16:48:25.459Z,9.62
2023-02-12T16:52:42.667Z,9.55
2023-02-12T16:56:59.035Z,9.39
2023-02-12T17:01:18.377Z,9.17
2023-02-12T17:05:30.659Z,8.95
2023-02-12T17:09:43.037Z,8.80
2023-02-12T17:13:56.085Z,8.66
2023-02-12T17:18:09.008Z,8.52
2023-02-12T17:22:24.761Z,8.31
2023-02-12T17:26:40.968Z,8.09
2023-02-12T17:30:54.548Z,8.32
2023-02-12T17:35:09.486Z,8.08
2023-02-12T17:39:22.034Z,9.00
2023-02-12T17:43:36.670Z,9.08
2023-02-12T17:47:50.092Z,9.15
2023-02-12T17:52:06.426Z,8.98
2023-02-12T17:56:21.966Z,9.05
2023-02-12T18:00:34.807Z,9.00
2023-02-12T18:04:47.007Z,8.93
2023-02-12T18:09:01.893Z,8.79
2023-02-12T18:13:15.824Z,8.77
2023-02-12T18:17:37.845Z,8.89
2023-02-12T18:21:50.145Z,8.84
2023-02-12T18:26:11.362Z,8.68
2023-02-12T18:30:24.919Z,8.51
2023-02-12T18:34:37.365Z,8.49
2023-02-12T18:38:54.819Z,8.04
2023-02-12T18:43:07.291Z,7.74
2023-02-12T18:47:19.770Z,7.40
2023-02-12T18:51:36.711Z,7.40
2023-02-12T18:55:49.344Z,6.89
2023-02-12T19:00:03.785Z,6.72
2023-02-12T19:04:18.828Z,6.51
2023-02-12T19:08:32.388Z,6.36
2023-02-12T19:12:45.120Z,6.34
2023-02-12T19:16:57.700Z,6.23
2023-02-12T19:21:13.222Z,6.04
2023-02-12T19:25:25.834Z,6.49
2023-02-12T19:29:38.361Z,5.95
2023-02-12T19:33:54.731Z,5.63
2023-02-12T19:38:09.803Z,5.86
2023-02-12T19:42:22.398Z,6.29
2023-02-12T19:46:35.980Z,6.37
2023-02-12T19:50:48.440Z,5.82
2023-02-12T19:55:00.852Z,5.81
2023-02-12T19:59:17.375Z,6.73
2023-02-12T20:03:29.827Z,6.58
2023-02-12T20:07:43.297Z,6.98
2023-02-12T20:11:57.359Z,7.00
2023-02-12T20:16:12.883Z,6.58
2023-02-12T20:20:25.565Z,6.04
2023-02-12T20:24:39.134Z,5.94
2023-02-12T20:28:51.696Z,5.63
2023-02-12T20:33:04.021Z,5.56
2023-02-12T20:37:18.439Z,5.96
2023-02-12T20:41:30.867Z,5.98
2023-02-12T20:45:43.383Z,5.62
2023-02-12T20:49:56.704Z,5.70
2023-02-12T20:54:09.451Z,5.40
2023-02-12T20:58:21.718Z,5.73
2023-02-12T21:02:34.164Z,6.35
2023-02-12T21:06:49.574Z,6.17
2023-02-12T21:11:06.239Z,5.71
2023-02-12T21:15:18.605Z,5.50
2023-02-12T21:19:31.035Z,5.59
2023-02-12T21:23:44.714Z,5.95
2023-02-12T21:27:57.092Z,5.71
2023-02-12T21:32:09.799Z,6.12
2023-02-12T21:36:25.626Z,5.40
2023-02-12T21:40:37.996Z,5.24
2023-02-12T21:44:50.413Z,5.72
2023-02-12T21:49:04.070Z,5.22
2023-02-12T21:53:17.330Z,5.20
2023-02-12T21:57:29.767Z,5.25
2023-02-12T22:01:49.176Z,5.27
2023-02-12T22:06:03.784Z,5.23
2023-02-12T22:10:19.863Z,5.02
2023-02-12T22:14:33.125Z,4.86
2023-02-12T22:18:50.662Z,5.72
2023-02-12T22:23:03.280Z,5.66
2023-02-12T22:27:16.805Z,5.05
2023-02-12T22:31:32.102Z,5.78
2023-02-12T22:35:44.590Z,5.73
2023-02-12T22:39:57.072Z,5.63
2023-02-12T22:44:11.137Z,5.40
2023-02-12T22:48:25.852Z,5.50
2023-02-12T22:52:38.538Z,5.05
2023-02-12T22:56:52.367Z,5.15
2023-02-12T23:01:09.580Z,5.30
2023-02-12T23:05:22.199Z,5.55
2023-02-12T23:09:34.577Z,6.02
2023-02-12T23:13:47.070Z,6.55
2023-02-12T23:17:59.466Z,6.45
2023-02-12T23:22:14.741Z,6.26
2023-02-12T23:26:29.624Z,6.65
2023-02-12T23:30:42.243Z,6.42
2023-02-12T23:34:54.690Z,6.06
2023-02-12T23:39:07.414Z,5.87
2023-02-12T23:43:19.738Z,5.67
2023-02-12T23:47:32.191Z,5.76
2023-02-12T23:51:46.644Z,5.97
2023-02-12T23:56:04.456Z,5.17
